sensor_id;sensor_type;location;lat;lon;timestamp;pressure;altitude;pressure_sealevel;temperature;humidity
43681;BME280;29281;50.356;30.894;2023-02-03T10:43:25;99826.86;;;4.62;100.00
43681;BME280;29281;50.356;30.894;2023-02-03T10:44:51;99822.23;;;4.67;100.00
43681;BME280;29281;50.356;30.894;2023-02-03T10:45:56;99813.32;;;4.52;100.00
43681;BME280;29281;50.356;30.894;2023-02-03T10:47:00;99819.12;;;4.42;100.00
43681;BME280;29281;50.356;30.894;2023-02-03T10:48:05;99818.51;;;4.54;100.00
43681;BME280;29281;50.356;30.894;2023-02-03T10:49:13;99815.72;;;4.91;100.00
43681;BME280;29281;50.356;30.894;2023-02-03T10:50:19;99814.27;;;4.86;100.00
43681;BME280;29281;50.356;30.894;2023-02-03T10:51:24;99816.90;;;4.69;100.00
43681;BME280;29281;50.356;30.894;2023-02-03T10:52:29;99818.20;;;4.77;100.00
43681;BME280;29281;50.356;30.894;2023-02-03T10:53:34;99813.50;;;4.84;100.00
43681;BME280;29281;50.356;30.894;2023-02-03T10:54:38;99811.78;;;4.66;100.00
43681;BME280;29281;50.356;30.894;2023-02-03T10:55:47;99815.63;;;4.58;100.00
43681;BME280;29281;50.356;30.894;2023-02-03T10:56:52;99819.75;;;4.64;100.00
43681;BME280;29281;50.356;30.894;2023-02-03T10:57:59;99812.86;;;4.62;100.00
43681;BME280;29281;50.356;30.894;2023-02-03T10:59:05;99811.08;;;4.62;100.00
43681;BME280;29281;50.356;30.894;2023-02-03T11:01:49;99806.52;;;4.66;100.00
43681;BME280;29281;50.356;30.894;2023-02-03T11:03:03;99806.59;;;4.64;100.00
43681;BME280;29281;50.356;30.894;2023-02-03T11:04:06;99806.45;;;4.67;100.00
43681;BME280;29281;50.356;30.894;2023-02-03T11:06:16;99806.86;;;4.23;100.00
43681;BME280;29281;50.356;30.894;2023-02-03T11:07:24;99802.20;;;4.29;100.00
43681;BME280;29281;50.356;30.894;2023-02-03T11:08:29;99796.88;;;4.30;100.00
43681;BME280;29281;50.356;30.894;2023-02-03T11:09:36;99799.93;;;4.40;100.00
43681;BME280;29281;50.356;30.894;2023-02-03T11:10:39;99797.66;;;4.32;100.00
43681;BME280;29281;50.356;30.894;2023-02-03T11:11:44;99793.11;;;4.36;100.00
43681;BME280;29281;50.356;30.894;2023-02-03T11:12:49;99795.34;;;4.43;100.00
43681;BME280;29281;50.356;30.894;2023-02-03T11:14:14;99796.81;;;4.32;100.00
43681;BME280;29281;50.356;30.894;2023-02-03T11:14:59;99803.45;;;4.21;100.00
43681;BME280;29281;50.356;30.894;2023-02-03T11:16:14;99793.82;;;4.39;100.00
43681;BME280;29281;50.356;30.894;2023-02-03T11:17:21;99795.28;;;4.45;100.00
43681;BME280;29281;50.356;30.894;2023-02-03T11:19:39;99793.89;;;4.89;99.56
43681;BME280;29281;50.356;30.894;2023-02-03T11:20:44;99791.04;;;4.94;99.38
43681;BME280;29281;50.356;30.894;2023-02-03T11:21:47;99797.30;;;4.91;97.97
43681;BME280;29281;50.356;30.894;2023-02-03T11:22:52;99785.40;;;5.02;98.14
43681;BME280;29281;50.356;30.894;2023-02-03T11:23:56;99791.12;;;4.75;98.10
43681;BME280;29281;50.356;30.894;2023-02-03T11:24:59;99787.97;;;4.86;99.98
43681;BME280;29281;50.356;30.894;2023-02-03T11:26:09;99787.33;;;4.98;98.23
43681;BME280;29281;50.356;30.894;2023-02-03T11:27:14;99788.18;;;4.99;97.08
43681;BME280;29281;50.356;30.894;2023-02-03T11:28:18;99791.44;;;5.04;96.36
43681;BME280;29281;50.356;30.894;2023-02-03T11:29:28;99787.54;;;5.11;94.84
43681;BME280;29281;50.356;30.894;2023-02-03T11:30:33;99792.16;;;5.23;94.59
43681;BME280;29281;50.356;30.894;2023-02-03T11:31:36;99790.06;;;5.29;94.83
43681;BME280;29281;50.356;30.894;2023-02-03T11:32:41;99787.44;;;5.29;95.08
43681;BME280;29281;50.356;30.894;2023-02-03T11:33:48;99789.56;;;5.39;95.20
43681;BME280;29281;50.356;30.894;2023-02-03T11:36:02;99793.23;;;4.86;96.31
43681;BME280;29281;50.356;30.894;2023-02-03T11:37:22;99795.07;;;5.01;95.30
43681;BME280;29281;50.356;30.894;2023-02-03T11:38:27;99799.39;;;5.19;94.39
43681;BME280;29281;50.356;30.894;2023-02-03T11:39:25;99794.51;;;5.12;94.37
43681;BME280;29281;50.356;30.894;2023-02-03T11:40:32;99786.84;;;5.07;94.66
43681;BME280;29281;50.356;30.894;2023-02-03T11:41:39;99788.63;;;4.89;94.33
43681;BME280;29281;50.356;30.894;2023-02-03T11:42:44;99787.19;;;4.67;96.50
43681;BME280;29281;50.356;30.894;2023-02-03T11:43:47;99792.05;;;4.74;96.29
43681;BME280;29281;50.356;30.894;2023-02-03T11:44:59;99784.26;;;4.73;96.25
43681;BME280;29281;50.356;30.894;2023-02-03T11:46:00;99789.59;;;4.71;96.25
43681;BME280;29281;50.356;30.894;2023-02-03T11:47:07;99785.63;;;4.63;96.74
43681;BME280;29281;50.356;30.894;2023-02-03T11:54:29;99789.59;;;4.71;97.59
43681;BME280;29281;50.356;30.894;2023-02-03T11:57:59;99790.05;;;4.79;98.04
43681;BME280;29281;50.356;30.894;2023-02-03T12:05:44;99787.44;;;5.78;91.92
43681;BME280;29281;50.356;30.894;2023-02-03T12:06:53;99783.95;;;5.78;92.35
43681;BME280;29281;50.356;30.894;2023-02-03T12:11:41;99783.58;;;5.68;92.05
43681;BME280;29281;50.356;30.894;2023-02-03T12:12:45;99786.22;;;5.68;92.24
43681;BME280;29281;50.356;30.894;2023-02-03T12:22:36;99779.16;;;5.69;92.05
43681;BME280;29281;50.356;30.894;2023-02-03T12:25:25;99774.34;;;5.77;92.44
43681;BME280;29281;50.356;30.894;2023-02-03T12:28:42;99778.07;;;5.73;91.79
43681;BME280;29281;50.356;30.894;2023-02-03T12:31:28;99778.39;;;5.66;92.53
43681;BME280;29281;50.356;30.894;2023-02-03T12:33:48;99779.49;;;5.47;91.79
43681;BME280;29281;50.356;30.894;2023-02-03T12:34:51;99782.78;;;5.35;92.02
43681;BME280;29281;50.356;30.894;2023-02-03T12:36:04;99784.11;;;5.26;92.28
43681;BME280;29281;50.356;30.894;2023-02-03T12:37:12;99788.01;;;5.19;92.13
43681;BME280;29281;50.356;30.894;2023-02-03T12:38:21;99787.69;;;5.08;93.00
43681;BME280;29281;50.356;30.894;2023-02-03T12:40:49;99794.06;;;5.04;94.50
43681;BME280;29281;50.356;30.894;2023-02-03T12:43:29;99791.72;;;5.15;94.08
43681;BME280;29281;50.356;30.894;2023-02-03T12:44:47;99795.22;;;4.98;94.08
43681;BME280;29281;50.356;30.894;2023-02-03T12:45:53;99797.86;;;4.98;93.55
43681;BME280;29281;50.356;30.894;2023-02-03T12:47:03;99793.30;;;5.02;93.67
43681;BME280;29281;50.356;30.894;2023-02-03T12:48:10;99792.81;;;4.93;93.87
43681;BME280;29281;50.356;30.894;2023-02-03T12:49:25;99792.60;;;4.81;95.24
43681;BME280;29281;50.356;30.894;2023-02-03T12:50:20;99795.94;;;4.84;94.51
43681;BME280;29281;50.356;30.894;2023-02-03T12:51:40;99787.03;;;4.87;94.37
43681;BME280;29281;50.356;30.894;2023-02-03T12:52:45;99788.81;;;4.86;94.71
43681;BME280;29281;50.356;30.894;2023-02-03T12:53:51;99795.08;;;4.84;94.39
43681;BME280;29281;50.356;30.894;2023-02-03T12:54:58;99791.45;;;4.69;94.59
43681;BME280;29281;50.356;30.894;2023-02-03T12:56:04;99791.30;;;4.72;94.48
43681;BME280;29281;50.356;30.894;2023-02-03T12:57:13;99786.41;;;4.65;95.38
43681;BME280;29281;50.356;30.894;2023-02-03T12:59:24;99786.80;;;4.57;96.31
43681;BME280;29281;50.356;30.894;2023-02-03T13:01:46;99786.08;;;4.36;98.71
43681;BME280;29281;50.356;30.894;2023-02-03T13:02:54;99789.16;;;4.44;98.44
43681;BME280;29281;50.356;30.894;2023-02-03T13:05:13;99786.47;;;4.46;97.91
43681;BME280;29281;50.356;30.894;2023-02-03T13:06:15;99786.32;;;4.49;97.61
43681;BME280;29281;50.356;30.894;2023-02-03T13:07:22;99783.69;;;4.49;98.45
43681;BME280;29281;50.356;30.894;2023-02-03T13:08:30;99779.92;;;4.54;97.63
43681;BME280;29281;50.356;30.894;2023-02-03T13:09:42;99786.63;;;4.60;98.00
43681;BME280;29281;50.356;30.894;2023-02-03T13:10:47;99781.30;;;4.62;99.11
43681;BME280;29281;50.356;30.894;2023-02-03T13:11:58;99785.55;;;4.64;99.43
43681;BME280;29281;50.356;30.894;2023-02-03T13:12:59;99790.67;;;4.67;99.68
43681;BME280;29281;50.356;30.894;2023-02-03T13:14:14;99784.62;;;4.65;99.11
43681;BME280;29281;50.356;30.894;2023-02-03T13:16:27;99782.69;;;4.51;99.02
43681;BME280;29281;50.356;30.894;2023-02-03T13:17:26;99783.23;;;4.41;99.90
43681;BME280;29281;50.356;30.894;2023-02-03T13:18:36;99787.56;;;4.42;100.00
43681;BME280;29281;50.356;30.894;2023-02-03T13:19:45;99781.45;;;4.41;100.00
43681;BME280;29281;50.356;30.894;2023-02-03T13:20:48;99783.59;;;4.33;100.00
43681;BME280;29281;50.356;30.894;2023-02-03T13:21:52;99786.64;;;4.43;100.00
43681;BME280;29281;50.356;30.894;2023-02-03T13:22:55;99787.95;;;4.51;100.00
43681;BME280;29281;50.356;30.894;2023-02-03T13:24:01;99788.33;;;4.61;100.00
43681;BME280;29281;50.356;30.894;2023-02-03T13:25:08;99791.74;;;4.63;100.00
43681;BME280;29281;50.356;30.894;2023-02-03T13:31:20;99791.89;;;4.60;99.59
43681;BME280;29281;50.356;30.894;2023-02-03T13:33:48;99788.55;;;4.03;100.00
43681;BME280;29281;50.356;30.894;2023-02-03T13:36:06;99778.55;;;4.11;100.00
43681;BME280;29281;50.356;30.894;2023-02-03T13:39:14;99792.48;;;4.31;100.00
43681;BME280;29281;50.356;30.894;2023-02-03T13:41:03;99780.75;;;4.38;100.00
43681;BME280;29281;50.356;30.894;2023-02-03T13:43:30;99783.73;;;4.30;100.00
43681;BME280;29281;50.356;30.894;2023-02-03T13:44:35;99785.30;;;4.34;99.79
43681;BME280;29281;50.356;30.894;2023-02-03T13:45:41;99780.11;;;4.33;98.89
43681;BME280;29281;50.356;30.894;2023-02-03T13:46:46;99778.09;;;4.20;98.84
43681;BME280;29281;50.356;30.894;2023-02-03T13:47:51;99778.09;;;4.20;98.84
43681;BME280;29281;50.356;30.894;2023-02-03T13:48:55;99781.42;;;4.24;98.39
43681;BME280;29281;50.356;30.894;2023-02-03T13:50:06;99783.98;;;4.26;98.02
43681;BME280;29281;50.356;30.894;2023-02-03T13:51:14;99780.58;;;4.23;98.28
43681;BME280;29281;50.356;30.894;2023-02-03T13:52:28;99784.05;;;4.24;98.42
43681;BME280;29281;50.356;30.894;2023-02-03T13:53:34;99779.94;;;4.18;98.09
43681;BME280;29281;50.356;30.894;2023-02-03T13:54:41;99779.16;;;4.16;98.60
43681;BME280;29281;50.356;30.894;2023-02-03T13:55:53;99778.09;;;4.20;99.21
43681;BME280;29281;50.356;30.894;2023-02-03T13:56:59;99781.36;;;4.26;98.47
43681;BME280;29281;50.356;30.894;2023-02-03T13:58:04;99784.84;;;4.26;98.60
43681;BME280;29281;50.356;30.894;2023-02-03T14:01:44;99777.77;;;4.09;97.18
43681;BME280;29281;50.356;30.894;2023-02-03T14:02:52;99780.03;;;3.98;97.00
43681;BME280;29281;50.356;30.894;2023-02-03T14:03:56;99782.89;;;3.94;96.44
43681;BME280;29281;50.356;30.894;2023-02-03T14:05:01;99783.44;;;4.00;96.21
43681;BME280;29281;50.356;30.894;2023-02-03T14:07:32;99785.86;;;4.05;96.86
43681;BME280;29281;50.356;30.894;2023-02-03T14:09:40;99784.53;;;3.96;96.70
43681;BME280;29281;50.356;30.894;2023-02-03T14:10:43;99786.98;;;3.99;96.96
43681;BME280;29281;50.356;30.894;2023-02-03T14:11:50;99780.34;;;3.92;96.83
43681;BME280;29281;50.356;30.894;2023-02-03T14:12:54;99780.20;;;3.95;96.93
43681;BME280;29281;50.356;30.894;2023-02-03T14:15:17;99783.17;;;3.87;96.34
43681;BME280;29281;50.356;30.894;2023-02-03T14:18:45;99780.80;;;3.25;95.42
43681;BME280;29281;50.356;30.894;2023-02-03T14:20:53;99779.21;;;3.02;96.45
43681;BME280;29281;50.356;30.894;2023-02-03T14:22:03;99782.69;;;3.03;95.92
43681;BME280;29281;50.356;30.894;2023-02-03T14:23:18;99782.81;;;3.00;96.48
43681;BME280;29281;50.356;30.894;2023-02-03T14:24:28;99785.62;;;3.15;97.17
43681;BME280;29281;50.356;30.894;2023-02-03T14:26:05;99787.00;;;3.43;95.95
43681;BME280;29281;50.356;30.894;2023-02-03T14:26:44;99782.88;;;3.37;95.25
43681;BME280;29281;50.356;30.894;2023-02-03T14:27:48;99784.41;;;3.23;96.45
43681;BME280;29281;50.356;30.894;2023-02-03T14:28:53;99781.09;;;3.19;96.00
43681;BME280;29281;50.356;30.894;2023-02-03T14:31:12;99781.82;;;3.41;95.86
43681;BME280;29281;50.356;30.894;2023-02-03T14:32:17;99790.28;;;3.48;95.75
43681;BME280;29281;50.356;30.894;2023-02-03T14:33:20;99786.88;;;3.46;95.85
43681;BME280;29281;50.356;30.894;2023-02-03T14:34:33;99786.73;;;3.49;95.23
43681;BME280;29281;50.356;30.894;2023-02-03T14:35:33;99784.59;;;3.57;94.85
43681;BME280;29281;50.356;30.894;2023-02-03T14:37:50;99788.86;;;3.60;94.73
43681;BME280;29281;50.356;30.894;2023-02-03T14:38:47;99779.01;;;3.65;95.57
43681;BME280;29281;50.356;30.894;2023-02-03T14:41:09;99783.75;;;3.57;95.99
43681;BME280;29281;50.356;30.894;2023-02-03T14:42:19;99777.09;;;3.49;95.34
43681;BME280;29281;50.356;30.894;2023-02-03T14:44:30;99775.72;;;3.41;95.08
43681;BME280;29281;50.356;30.894;2023-02-03T14:46:54;99775.30;;;3.31;95.81
43681;BME280;29281;50.356;30.894;2023-02-03T14:50:33;99780.13;;;2.81;94.24
43681;BME280;29281;50.356;30.894;2023-02-03T14:54:20;99783.35;;;2.88;93.13
43681;BME280;29281;50.356;30.894;2023-02-03T14:55:45;99782.36;;;2.70;93.37
43681;BME280;29281;50.356;30.894;2023-02-03T14:59:25;99786.95;;;2.85;94.60
43681;BME280;29281;50.356;30.894;2023-02-03T15:00:30;99785.56;;;2.97;94.50
43681;BME280;29281;50.356;30.894;2023-02-03T15:06:35;99784.64;;;3.18;93.79
43681;BME280;29281;50.356;30.894;2023-02-03T15:07:34;99785.42;;;3.20;94.07
43681;BME280;29281;50.356;30.894;2023-02-03T15:08:40;99785.88;;;3.09;93.83
43681;BME280;29281;50.356;30.894;2023-02-03T15:09:45;99786.55;;;2.94;92.83
43681;BME280;29281;50.356;30.894;2023-02-03T15:10:49;99785.63;;;2.95;92.64
43681;BME280;29281;50.356;30.894;2023-02-03T15:11:53;99782.44;;;2.89;93.79
43681;BME280;29281;50.356;30.894;2023-02-03T15:12:57;99787.80;;;2.86;94.70
43681;BME280;29281;50.356;30.894;2023-02-03T15:14:20;99784.33;;;2.85;94.57
43681;BME280;29281;50.356;30.894;2023-02-03T15:15:39;99788.78;;;2.83;95.06
43681;BME280;29281;50.356;30.894;2023-02-03T15:16:35;99786.10;;;2.85;94.97
43681;BME280;29281;50.356;30.894;2023-02-03T15:18:56;99792.52;;;2.77;96.72
43681;BME280;29281;50.356;30.894;2023-02-03T15:19:59;99797.94;;;2.53;96.58
43681;BME280;29281;50.356;30.894;2023-02-03T15:21:02;99793.00;;;2.45;97.43
43681;BME280;29281;50.356;30.894;2023-02-03T15:23:42;99796.17;;;2.53;97.49
43681;BME280;29281;50.356;30.894;2023-02-03T15:24:45;99795.27;;;2.54;96.63
43681;BME280;29281;50.356;30.894;2023-02-03T15:25:56;99795.84;;;2.61;95.82
43681;BME280;29281;50.356;30.894;2023-02-03T15:26:56;99799.73;;;2.72;95.79
43681;BME280;29281;50.356;30.894;2023-02-03T15:28:18;99794.22;;;2.78;95.50
43681;BME280;29281;50.356;30.894;2023-02-03T15:29:24;99798.30;;;2.86;95.23
43681;BME280;29281;50.356;30.894;2023-02-03T15:30:25;99802.36;;;2.72;94.92
43681;BME280;29281;50.356;30.894;2023-02-03T15:31:37;99793.09;;;2.64;95.25
43681;BME280;29281;50.356;30.894;2023-02-03T15:32:38;99797.70;;;2.59;95.96
43681;BME280;29281;50.356;30.894;2023-02-03T15:33:42;99795.72;;;2.64;95.78
43681;BME280;29281;50.356;30.894;2023-02-03T15:34:47;99796.78;;;2.60;95.39
43681;BME280;29281;50.356;30.894;2023-02-03T15:35:55;99805.69;;;2.76;94.84
43681;BME280;29281;50.356;30.894;2023-02-03T15:37:01;99804.98;;;2.72;95.35
43681;BME280;29281;50.356;30.894;2023-02-03T15:38:12;99808.52;;;2.71;94.80
43681;BME280;29281;50.356;30.894;2023-02-03T15:39:21;99797.45;;;2.85;95.07
43681;BME280;29281;50.356;30.894;2023-02-03T15:40:26;99808.50;;;2.92;94.54
43681;BME280;29281;50.356;30.894;2023-02-03T15:41:29;99803.13;;;2.95;95.12
43681;BME280;29281;50.356;30.894;2023-02-03T15:42:37;99808.13;;;3.01;94.35
43681;BME280;29281;50.356;30.894;2023-02-03T15:43:42;99810.15;;;2.94;93.82
43681;BME280;29281;50.356;30.894;2023-02-03T15:44:48;99816.06;;;2.99;93.36
43681;BME280;29281;50.356;30.894;2023-02-03T15:45:53;99810.75;;;3.01;94.36
43681;BME280;29281;50.356;30.894;2023-02-03T15:46:56;99809.36;;;2.92;93.82
43681;BME280;29281;50.356;30.894;2023-02-03T15:48:04;99813.36;;;2.80;93.50
43681;BME280;29281;50.356;30.894;2023-02-03T15:49:42;99810.47;;;2.66;92.68
43681;BME280;29281;50.356;30.894;2023-02-03T15:50:30;99804.71;;;2.58;93.20
43681;BME280;29281;50.356;30.894;2023-02-03T15:51:45;99809.16;;;2.56;93.74
43681;BME280;29281;50.356;30.894;2023-02-03T15:52:49;99815.72;;;2.66;93.08
43681;BME280;29281;50.356;30.894;2023-02-03T15:53:58;99808.58;;;2.70;93.62
43681;BME280;29281;50.356;30.894;2023-02-03T15:55:08;99813.55;;;2.76;92.75
43681;BME280;29281;50.356;30.894;2023-02-03T15:56:10;99810.35;;;2.69;93.36
43681;BME280;29281;50.356;30.894;2023-02-03T15:57:16;99817.76;;;2.80;93.01
43681;BME280;29281;50.356;30.894;2023-02-03T15:58:23;99811.27;;;2.68;93.47
43681;BME280;29281;50.356;30.894;2023-02-03T15:59:31;99814.62;;;2.72;93.82
43681;BME280;29281;50.356;30.894;2023-02-03T16:00:36;99817.42;;;2.67;92.45
43681;BME280;29281;50.356;30.894;2023-02-03T16:01:39;99814.06;;;2.64;92.92
43681;BME280;29281;50.356;30.894;2023-02-03T16:02:43;99818.28;;;2.68;92.76
43681;BME280;29281;50.356;30.894;2023-02-03T16:03:48;99816.96;;;2.78;93.04
43681;BME280;29281;50.356;30.894;2023-02-03T16:04:54;99814.68;;;2.70;92.21
43681;BME280;29281;50.356;30.894;2023-02-03T16:07:20;99818.89;;;2.74;93.14
43681;BME280;29281;50.356;30.894;2023-02-03T16:08:43;99813.42;;;2.79;93.59
43681;BME280;29281;50.356;30.894;2023-02-03T16:09:39;99819.01;;;2.71;94.27
43681;BME280;29281;50.356;30.894;2023-02-03T16:10:42;99818.67;;;2.79;93.78
43681;BME280;29281;50.356;30.894;2023-02-03T16:11:47;99816.11;;;2.77;94.13
43681;BME280;29281;50.356;30.894;2023-02-03T16:12:50;99817.30;;;2.70;94.52
43681;BME280;29281;50.356;30.894;2023-02-03T16:13:53;99814.62;;;2.72;94.72
43681;BME280;29281;50.356;30.894;2023-02-03T16:15:00;99812.57;;;2.78;94.16
43681;BME280;29281;50.356;30.894;2023-02-03T16:16:05;99820.98;;;2.87;95.02
43681;BME280;29281;50.356;30.894;2023-02-03T16:17:20;99818.87;;;2.95;94.15
43681;BME280;29281;50.356;30.894;2023-02-03T16:18:20;99816.25;;;2.95;93.90
43681;BME280;29281;50.356;30.894;2023-02-03T21:59:18;99780.34;;;1.69;91.71
43681;BME280;29281;50.356;30.894;2023-02-03T22:00:40;99782.95;;;1.69;90.80
43681;BME280;29281;50.356;30.894;2023-02-03T22:01:46;99785.72;;;1.66;91.11
43681;BME280;29281;50.356;30.894;2023-02-03T22:03:59;99780.59;;;1.63;90.27
43681;BME280;29281;50.356;30.894;2023-02-03T22:05:03;99783.09;;;1.66;91.17
43681;BME280;29281;50.356;30.894;2023-02-03T22:07:14;99782.24;;;1.65;90.49
43681;BME280;29281;50.356;30.894;2023-02-03T22:08:17;99786.57;;;1.66;90.17
43681;BME280;29281;50.356;30.894;2023-02-03T22:09:24;99786.52;;;1.68;90.39
43681;BME280;29281;50.356;30.894;2023-02-03T22:10:26;99785.72;;;1.66;90.44
43681;BME280;29281;50.356;30.894;2023-02-03T22:11:30;99785.72;;;1.66;90.38
43681;BME280;29281;50.356;30.894;2023-02-03T22:12:34;99790.75;;;1.70;90.49
43681;BME280;29281;50.356;30.894;2023-02-03T22:13:36;99790.64;;;1.73;89.62
43681;BME280;29281;50.356;30.894;2023-02-03T22:14:41;99789.73;;;1.74;91.03
43681;BME280;29281;50.356;30.894;2023-02-03T22:15:44;99787.17;;;1.73;91.72
43681;BME280;29281;50.356;30.894;2023-02-03T22:16:48;99795.08;;;1.71;91.99
43681;BME280;29281;50.356;30.894;2023-02-03T22:17:51;99794.11;;;1.74;91.04
43681;BME280;29281;50.356;30.894;2023-02-03T22:18:54;99795.70;;;1.78;91.53
43681;BME280;29281;50.356;30.894;2023-02-03T22:19:58;99791.44;;;1.75;91.75
43681;BME280;29281;50.356;30.894;2023-02-03T22:21:01;99791.44;;;1.75;91.15
43681;BME280;29281;50.356;30.894;2023-02-03T22:22:05;99792.30;;;1.76;92.36
43681;BME280;29281;50.356;30.894;2023-02-03T22:23:08;99794.05;;;1.75;91.92
43681;BME280;29281;50.356;30.894;2023-02-03T22:25:20;99793.14;;;1.76;90.65
43681;BME280;29281;50.356;30.894;2023-02-03T22:26:23;99791.44;;;1.75;89.95
43681;BME280;29281;50.356;30.894;2023-02-03T22:27:26;99793.20;;;1.75;90.54
43681;BME280;29281;50.356;30.894;2023-02-03T22:28:33;99795.77;;;1.76;90.19
43681;BME280;29281;50.356;30.894;2023-02-03T22:29:37;99795.66;;;1.80;90.65
43681;BME280;29281;50.356;30.894;2023-02-03T22:30:40;99785.07;;;1.83;90.98
43681;BME280;29281;50.356;30.894;2023-02-03T22:31:43;99793.78;;;1.83;90.53
43681;BME280;29281;50.356;30.894;2023-02-03T22:32:46;99795.08;;;1.71;90.57
43681;BME280;29281;50.356;30.894;2023-02-03T22:33:51;99794.47;;;1.65;90.38
43681;BME280;29281;50.356;30.894;2023-02-03T22:34:54;99794.17;;;1.72;90.12
43681;BME280;29281;50.356;30.894;2023-02-03T22:35:59;99795.02;;;1.73;90.88
43681;BME280;29281;50.356;30.894;2023-02-03T22:37:04;99790.53;;;1.76;90.34
43681;BME280;29281;50.356;30.894;2023-02-03T22:38:07;99792.34;;;1.74;89.96
43681;BME280;29281;50.356;30.894;2023-02-03T22:39:09;99785.30;;;1.76;89.44
43681;BME280;29281;50.356;30.894;2023-02-03T22:40:12;99787.86;;;1.78;89.83
43681;BME280;29281;50.356;30.894;2023-02-03T22:41:16;99783.70;;;1.72;90.68
43681;BME280;29281;50.356;30.894;2023-02-03T22:42:19;99788.93;;;1.72;91.01
43681;BME280;29281;50.356;30.894;2023-02-03T22:43:25;99782.95;;;1.69;91.58
43681;BME280;29281;50.356;30.894;2023-02-03T22:44:30;99781.19;;;1.69;91.30
43681;BME280;29281;50.356;30.894;2023-02-03T22:45:34;99792.71;;;1.65;90.79
43681;BME280;29281;50.356;30.894;2023-02-03T22:46:38;99781.39;;;1.65;91.05
43681;BME280;29281;50.356;30.894;2023-02-03T22:47:41;99787.53;;;1.64;90.56
43681;BME280;29281;50.356;30.894;2023-02-03T22:48:44;99780.59;;;1.63;91.10
43681;BME280;29281;50.356;30.894;2023-02-03T22:49:48;99784.00;;;1.65;91.16
43681;BME280;29281;50.356;30.894;2023-02-03T22:50:50;99787.48;;;1.65;90.53
43681;BME280;29281;50.356;30.894;2023-02-03T22:51:53;99789.19;;;1.66;90.89
43681;BME280;29281;50.356;30.894;2023-02-03T22:52:59;99784.91;;;1.64;91.03
43681;BME280;29281;50.356;30.894;2023-02-03T22:54:03;99780.48;;;1.66;91.11
43681;BME280;29281;50.356;30.894;2023-02-03T22:55:07;99785.52;;;1.70;90.72
43681;BME280;29281;50.356;30.894;2023-02-03T22:56:11;99782.35;;;1.62;91.44
43681;BME280;29281;50.356;30.894;2023-02-03T22:57:17;99779.35;;;1.50;90.91
43681;BME280;29281;50.356;30.894;2023-02-03T22:58:22;99775.98;;;1.46;91.17
43681;BME280;29281;50.356;30.894;2023-02-03T22:59:26;99774.58;;;1.37;91.30
43681;BME280;29281;50.356;30.894;2023-02-03T23:00:29;99771.97;;;1.37;91.27
43681;BME280;29281;50.356;30.894;2023-02-03T23:01:33;99775.55;;;1.35;91.62
43681;BME280;29281;50.356;30.894;2023-02-03T23:02:41;99776.56;;;1.31;91.45
43681;BME280;29281;50.356;30.894;2023-02-03T23:03:41;99775.59;;;1.33;91.42
43681;BME280;29281;50.356;30.894;2023-02-03T23:04:44;99779.28;;;1.28;91.42
43681;BME280;29281;50.356;30.894;2023-02-03T23:05:53;99780.78;;;1.35;91.48
43681;BME280;29281;50.356;30.894;2023-02-03T23:06:57;99774.00;;;1.29;91.61
43681;BME280;29281;50.356;30.894;2023-02-03T23:08:00;99775.06;;;1.24;91.58
43681;BME280;29281;50.356;30.894;2023-02-03T23:09:06;99772.50;;;1.22;91.46
43681;BME280;29281;50.356;30.894;2023-02-03T23:10:10;99775.41;;;1.15;91.91
43681;BME280;29281;50.356;30.894;2023-02-03T23:11:14;99775.01;;;1.02;92.56
43681;BME280;29281;50.356;30.894;2023-02-03T23:12:18;99778.42;;;1.04;93.17
43681;BME280;29281;50.356;30.894;2023-02-03T23:13:20;99784.06;;;1.17;93.23
43681;BME280;29281;50.356;30.894;2023-02-03T23:14:27;99775.36;;;1.16;92.79
43681;BME280;29281;50.356;30.894;2023-02-03T23:15:30;99774.00;;;1.29;93.11
43681;BME280;29281;50.356;30.894;2023-02-03T23:16:33;99769.52;;;1.33;91.83
43681;BME280;29281;50.356;30.894;2023-02-03T23:17:37;99773.59;;;1.40;91.12
43681;BME280;29281;50.356;30.894;2023-02-03T23:18:40;99781.92;;;1.51;91.03
43681;BME280;29281;50.356;30.894;2023-02-03T23:19:43;99770.54;;;1.52;91.91
43681;BME280;29281;50.356;30.894;2023-02-03T23:20:46;99776.38;;;1.59;91.27
43681;BME280;29281;50.356;30.894;2023-02-03T23:21:49;99779.84;;;1.59;91.52
43681;BME280;29281;50.356;30.894;2023-02-03T23:22:53;99767.73;;;1.57;91.19
43681;BME280;29281;50.356;30.894;2023-02-03T23:23:56;99768.52;;;1.59;91.19
43681;BME280;29281;50.356;30.894;2023-02-03T23:24:59;99772.73;;;1.63;90.51
43681;BME280;29281;50.356;30.894;2023-02-03T23:26:02;99771.14;;;1.59;90.90
43681;BME280;29281;50.356;30.894;2023-02-03T23:27:05;99770.59;;;1.51;90.53
43681;BME280;29281;50.356;30.894;2023-02-03T23:28:10;99768.89;;;1.50;91.19
43681;BME280;29281;50.356;30.894;2023-02-03T23:29:13;99772.30;;;1.52;90.59
43681;BME280;29281;50.356;30.894;2023-02-03T23:30:16;99765.47;;;1.48;90.93
43681;BME280;29281;50.356;30.894;2023-02-03T23:31:20;99761.89;;;1.50;92.00
43681;BME280;29281;50.356;30.894;2023-02-03T23:32:23;99768.83;;;1.51;93.60
43681;BME280;29281;50.356;30.894;2023-02-03T23:33:27;99762.96;;;1.45;95.01
43681;BME280;29281;50.356;30.894;2023-02-03T23:34:29;99763.92;;;1.42;94.57
43681;BME280;29281;50.356;30.894;2023-02-03T23:35:51;99770.06;;;1.41;94.48
43681;BME280;29281;50.356;30.894;2023-02-03T23:36:53;99776.42;;;1.11;91.49
43681;BME280;29281;50.356;30.894;2023-02-03T23:37:56;99764.05;;;1.16;91.27
43681;BME280;29281;50.356;30.894;2023-02-03T23:39:00;99772.50;;;1.22;90.91
43681;BME280;29281;50.356;30.894;2023-02-03T23:40:03;99773.30;;;1.24;90.93
43681;BME280;29281;50.356;30.894;2023-02-03T23:41:06;99776.91;;;1.22;91.01
43681;BME280;29281;50.356;30.894;2023-02-03T23:42:09;99778.48;;;1.26;90.30
43681;BME280;29281;50.356;30.894;2023-02-03T23:43:12;99779.13;;;1.32;90.21
43681;BME280;29281;50.356;30.894;2023-02-03T23:44:15;99778.38;;;1.29;91.70
43681;BME280;29281;50.356;30.894;2023-02-03T23:45:18;99771.59;;;1.23;93.54
43681;BME280;29281;50.356;30.894;2023-02-03T23:46:20;99775.26;;;1.19;92.76